Chrisney, IN

10:29 PM CDT on September 21, 2014 (GMT -0500)
Tennyson Indiana | Change Station
CLOSE
Current Station
Personal Weather Station
Location: Tennyson, IN
Elevation: 427 ft
Nearby Weather Stations

Elev 427 ft 38.08 °N, 87.12 °W | Updated 14 seconds ago

Clear
Clear
61.3 °F
Feels Like 61.3 °F
N
2.2
Wind Variable Wind from North
Gusts 3.1 mph

Today
High -- | Low -- °F
--% Chance of Precip.
Yesterday
High -- | Low -- °F
Precip. -- in
6:35 AM 6:46 PM
Waning Crescent, 4% visible
Pressure 30.08 in
Visibility 10.0 miles
Clouds Clear
Dew Point 52 °F
Humidity 72%
Rainfall 0.13 in
Snow Depth Not available.
UV 0 out of 12
Pollen 6.10 out of 12
Air Quality Not available.
Flu Activity Not available.
METAR KOWB 220256Z AUTO 01007KT 10SM CLR 18/11 A3008 RMK AO2

More Conditions Fewer Conditions

Pressure 30.08 in
Visibility 10.0 miles
Clouds Clear
Dew Point 52 °F
Humidity 72%
Rainfall 0.13 in
Snow Depth Not available.
UV 0 out of 12
Pollen 6.10 out of 12
Air Quality Not available.
Flu Activity Not available.
METAR KOWB 220256Z AUTO 01007KT 10SM CLR 18/11 A3008 RMK AO2

More Conditions Fewer Conditions

10-Day Weather Forecast

Almanac

Astronomy

Sep. 21, 2014 Rise Set
Actual Time 6:35 AM CDT 6:46 PM CDT
Civil Twilight 6:08 AM CDT 7:12 PM CDT
Nautical Twilight 5:37 AM CDT 7:43 PM CDT
Astronomical Twilight 5:06 AM CDT 8:14 PM CDT
Moon 4:10 AM CDT (9/21) 5:21 PM CDT (9/21)
Length of Visible Light 13h 04m
Length of Day
12h 11m
Tomorrow will be 2m 26s shorter.
Waning Crescent, 4% of the Moon is Illuminated
Today
Waning Crescent
Sep 24
New
Oct 1
First Quarter
Oct 8
Full
Oct 15
Last Quarter

Today's Extremes

State Highs State Lows

Community

WunderPhotos

Upload Photos

1,755,382 photos uploaded!

WunderBlogs® & News

Nearby

Snow Depth

Station Depth Elevation
No new snow has been reported.

Earthquake Activity

City Distance Mag. Time & Date
No recent earthquake activity has been reported nearby.
Minimum magnitude displayed is 2.5.

Coastal Water Temperatures

Place Temperature
No Stations Reporting

Nearby Weather Stations